createdAt,value
2022-11-05T00:02:48.696Z,92845.88
2022-11-05T00:08:13.027Z,92838.27
2022-11-05T00:13:36.818Z,92837.73
2022-11-05T00:18:43.789Z,92817.85
2022-11-05T00:24:07.778Z,92816.01
2022-11-05T00:29:14.986Z,92817.33
2022-11-05T00:34:22.165Z,92820.48
2022-11-05T00:39:29.445Z,92835.20
2022-11-05T00:44:53.484Z,92840.21
2022-11-05T00:50:00.534Z,92849.70
2022-11-05T00:55:07.485Z,92870.53
2022-11-05T01:00:15.446Z,92877.64
2022-11-05T01:05:22.587Z,92872.63
2022-11-05T01:10:30.810Z,92871.09
2022-11-05T01:15:39.460Z,92887.94
2022-11-05T01:20:47.444Z,92879.70
2022-11-05T01:25:54.640Z,92876.84
2022-11-05T01:31:01.817Z,92881.54
2022-11-05T01:36:08.944Z,92891.38
2022-11-05T01:41:16.192Z,92885.00
2022-11-05T01:46:27.577Z,92886.80
2022-11-05T01:51:34.787Z,92886.33
2022-11-05T01:56:48.812Z,92883.42
2022-11-05T02:01:56.903Z,92889.20
2022-11-05T02:07:06.082Z,92879.42
2022-11-05T02:12:15.154Z,92869.16
2022-11-05T02:17:38.299Z,92876.31
2022-11-05T02:23:28.705Z,92885.58
2022-11-05T02:28:51.693Z,92874.42
2022-11-05T02:34:14.578Z,92879.14
2022-11-05T02:39:34.732Z,92879.41
2022-11-05T02:45:14.380Z,92880.22
2022-11-05T02:50:36.489Z,92880.02
2022-11-05T02:55:55.871Z,92878.95
2022-11-05T03:01:04.467Z,92878.47
2022-11-05T03:06:18.386Z,92876.41
2022-11-05T03:11:25.483Z,92873.47
2022-11-05T03:16:43.800Z,92874.00
2022-11-05T03:22:12.586Z,92879.79
2022-11-05T03:27:24.242Z,92883.73
2022-11-05T03:32:34.811Z,92884.27
2022-11-05T03:37:44.704Z,92895.36
2022-11-05T03:42:55.427Z,92901.98
2022-11-05T03:48:05.745Z,92882.47
2022-11-05T03:53:22.785Z,92895.14
2022-11-05T03:58:31.054Z,92903.00
2022-11-05T04:03:38.116Z,92906.38
2022-11-05T04:09:02.625Z,92908.27
2022-11-05T04:14:08.193Z,92900.67
2022-11-05T04:19:16.102Z,92910.64
2022-11-05T04:24:22.819Z,92928.02
2022-11-05T04:29:47.264Z,92912.66
2022-11-05T04:34:53.080Z,92925.42
2022-11-05T04:40:00.198Z,92932.80
2022-11-05T04:45:07.238Z,92940.18
2022-11-05T04:50:14.268Z,92947.88
2022-11-05T04:55:21.847Z,92966.33
2022-11-05T05:00:28.631Z,92967.64
2022-11-05T05:05:36.050Z,92988.27
2022-11-05T05:10:42.954Z,92992.69
2022-11-05T05:15:49.757Z,93003.00
2022-11-05T05:21:18.506Z,92997.80
2022-11-05T05:26:25.427Z,93003.23
2022-11-05T05:31:32.441Z,92998.22
2022-11-05T05:36:41.770Z,93016.34
2022-11-05T05:41:48.668Z,93018.20
2022-11-05T05:46:56.825Z,93029.84
2022-11-05T05:52:03.666Z,93034.59
2022-11-05T05:57:10.834Z,93058.05
2022-11-05T06:02:18.085Z,93039.85
2022-11-05T06:07:25.372Z,93040.91
2022-11-05T06:12:32.503Z,93030.06
2022-11-05T06:17:39.341Z,93048.77
2022-11-05T06:22:46.253Z,93057.24
2022-11-05T06:27:53.230Z,93053.56
2022-11-05T06:33:09.240Z,93071.00
2022-11-05T06:38:16.302Z,93077.85
2022-11-05T06:43:23.225Z,93082.64
2022-11-05T06:48:31.231Z,93087.16
2022-11-05T06:53:38.874Z,93083.24
2022-11-05T06:58:45.734Z,93102.80
2022-11-05T07:03:52.525Z,93105.98
2022-11-05T07:08:59.606Z,93117.87
2022-11-05T07:14:06.454Z,93119.97
2022-11-05T07:19:13.420Z,93122.09
2022-11-05T07:24:20.177Z,93120.27
2022-11-05T07:29:26.829Z,93114.73
2022-11-05T07:34:33.585Z,93105.48
2022-11-05T07:39:40.245Z,93113.13
2022-11-05T07:44:46.952Z,93119.97
2022-11-05T07:49:53.749Z,93125.27
2022-11-05T07:55:00.446Z,93126.55
2022-11-05T08:00:08.135Z,93128.66
2022-11-05T08:05:15.290Z,93124.70
2022-11-05T08:10:22.202Z,93127.58
2022-11-05T08:15:29.115Z,93133.06
2022-11-05T08:20:37.490Z,93140.73
2022-11-05T08:25:44.105Z,93143.66
2022-11-05T08:30:56.419Z,93140.52
2022-11-05T08:36:07.654Z,93143.63
2022-11-05T08:41:14.368Z,93132.26
2022-11-05T08:46:21.102Z,93130.88
2022-11-05T08:51:27.905Z,93146.16
2022-11-05T08:56:35.279Z,93136.61
2022-11-05T09:01:42.520Z,93136.74
2022-11-05T09:06:49.285Z,93132.30
2022-11-05T09:12:11.761Z,93146.48
2022-11-05T09:17:05.034Z,93151.52
2022-11-05T09:22:13.078Z,93160.83
2022-11-05T09:27:20.338Z,93158.00
2022-11-05T09:32:27.112Z,93154.72
2022-11-05T09:37:34.727Z,93166.52
2022-11-05T09:42:45.888Z,93181.48
2022-11-05T09:47:57.111Z,93175.89
2022-11-05T09:53:06.099Z,93176.84
2022-11-05T09:58:27.561Z,93183.70
2022-11-05T10:03:32.576Z,93177.28
2022-11-05T10:08:43.597Z,93182.05
2022-11-05T10:13:54.892Z,93184.83
2022-11-05T10:19:10.172Z,93176.73
2022-11-05T10:24:21.617Z,93189.86
2022-11-05T10:29:32.887Z,93181.09
2022-11-05T10:34:42.694Z,93180.88
2022-11-05T10:39:50.895Z,93180.75
2022-11-05T10:45:42.345Z,93192.06
2022-11-05T10:50:50.023Z,93200.98
2022-11-05T10:55:58.298Z,93191.33
2022-11-05T11:01:09.554Z,93194.48
2022-11-05T11:06:38.897Z,93204.25
2022-11-05T11:11:46.531Z,93198.88
2022-11-05T11:16:56.010Z,93203.88
2022-11-05T11:22:12.810Z,93212.95
2022-11-05T11:27:31.912Z,93201.23
2022-11-05T11:32:41.246Z,93209.73
2022-11-05T11:37:49.685Z,93210.22
2022-11-05T11:43:03.119Z,93221.11
2022-11-05T11:48:14.015Z,93229.90
2022-11-05T11:53:34.283Z,93225.06
2022-11-05T11:58:53.354Z,93224.92
2022-11-05T12:04:13.421Z,93231.77
2022-11-05T12:09:53.034Z,93221.74
2022-11-05T12:15:22.395Z,93222.73
2022-11-05T12:21:06.735Z,93218.50
2022-11-05T12:26:34.427Z,93216.12
2022-11-05T12:32:16.067Z,93229.93
2022-11-05T12:37:42.200Z,93222.53
2022-11-05T12:43:29.388Z,93224.77
2022-11-05T12:48:40.655Z,93235.30
2022-11-05T12:54:18.316Z,93244.67
2022-11-05T12:59:52.559Z,93253.05
2022-11-05T13:05:30.722Z,93254.63
2022-11-05T13:16:40.350Z,93266.07
2022-11-05T13:22:19.946Z,93266.53
2022-11-05T13:33:29.565Z,93291.38
2022-11-05T13:38:53.993Z,93302.44
2022-11-05T13:44:26.282Z,93302.52
2022-11-05T13:50:13.393Z,93297.75
2022-11-05T13:55:46.609Z,93302.19
2022-11-05T14:01:29.322Z,93309.47
2022-11-05T14:06:38.656Z,93307.05
2022-11-05T14:11:52.168Z,93314.29
2022-11-05T14:17:24.245Z,93331.83
2022-11-05T14:22:38.107Z,93325.75
2022-11-05T14:27:46.152Z,93337.44
2022-11-05T14:32:54.763Z,93344.94
2022-11-05T14:38:07.574Z,93349.77
2022-11-05T14:43:23.186Z,93342.91
2022-11-05T14:48:44.929Z,93349.05
2022-11-05T14:53:51.629Z,93347.43
2022-11-05T14:59:32.446Z,93350.44
2022-11-05T15:04:47.634Z,93358.91
2022-11-05T15:10:10.107Z,93369.64
2022-11-05T15:15:29.126Z,93365.80
2022-11-05T15:20:43.152Z,93362.91
2022-11-05T15:26:13.078Z,93375.98
2022-11-05T15:31:40.219Z,93374.75
2022-11-05T15:36:54.899Z,93380.34
2022-11-05T15:42:08.271Z,93380.55
2022-11-05T15:47:38.016Z,93373.56
2022-11-05T15:52:56.705Z,93365.67
2022-11-05T15:58:08.679Z,93379.84
2022-11-05T16:03:25.802Z,93387.45
2022-11-05T16:08:33.982Z,93384.80
2022-11-05T16:13:43.179Z,93384.38
2022-11-05T16:18:51.860Z,93386.11
2022-11-05T16:24:00.978Z,93390.13
2022-11-05T16:29:24.329Z,93407.75
2022-11-05T16:34:53.898Z,93392.71
2022-11-05T16:40:02.454Z,93410.85
2022-11-05T16:45:12.841Z,93425.00
2022-11-05T16:50:27.454Z,93426.34
2022-11-05T16:55:36.031Z,93442.59
2022-11-05T17:00:46.345Z,93450.53
2022-11-05T17:05:53.042Z,93456.02
2022-11-05T17:11:00.269Z,93459.42
2022-11-05T17:16:07.318Z,93457.59
2022-11-05T17:21:14.627Z,93470.77
2022-11-05T17:26:21.385Z,93475.45
2022-11-05T17:31:28.270Z,93479.28
2022-11-05T17:36:34.857Z,93486.45
2022-11-05T17:41:42.092Z,93491.13
2022-11-05T17:46:51.310Z,93489.63
2022-11-05T17:52:01.051Z,93498.36
2022-11-05T17:57:07.944Z,93492.41
2022-11-05T18:02:15.288Z,93513.84
2022-11-05T18:07:21.997Z,93513.59
2022-11-05T18:12:28.864Z,93509.30
2022-11-05T18:17:38.302Z,93506.92
2022-11-05T18:22:45.341Z,93509.34
2022-11-05T18:27:52.065Z,93524.98
2022-11-05T18:32:58.925Z,93524.28
2022-11-05T18:38:05.614Z,93516.09
2022-11-05T18:43:13.044Z,93531.08
2022-11-05T18:48:20.204Z,93531.78
2022-11-05T18:53:29.288Z,93538.24
2022-11-05T18:58:36.348Z,93538.27
2022-11-05T19:03:44.014Z,93533.98
2022-11-05T19:08:51.710Z,93536.78
2022-11-05T19:13:59.623Z,93544.83
2022-11-05T19:19:07.880Z,93561.39
2022-11-05T19:24:18.044Z,93572.23
2022-11-05T19:29:23.988Z,93566.86
2022-11-05T19:34:31.036Z,93568.43
2022-11-05T19:39:39.533Z,93582.99
2022-11-05T19:44:48.913Z,93578.34
2022-11-05T19:49:56.288Z,93582.47
2022-11-05T19:55:05.602Z,93598.78
2022-11-05T20:00:16.760Z,93595.55
2022-11-05T20:05:23.841Z,93601.75
2022-11-05T20:10:30.780Z,93605.58
2022-11-05T20:15:42.187Z,93600.55
2022-11-05T20:20:50.244Z,93612.17
2022-11-05T20:25:57.475Z,93606.00
2022-11-05T20:31:11.744Z,93609.58
2022-11-05T20:36:22.773Z,93612.17
2022-11-05T20:41:31.197Z,93618.69
2022-11-05T20:46:38.252Z,93612.87
2022-11-05T20:51:45.109Z,93623.19
2022-11-05T20:56:53.484Z,93623.88
2022-11-05T21:02:00.290Z,93619.92
2022-11-05T21:07:07.453Z,93623.78
2022-11-05T21:12:14.538Z,93626.34
2022-11-05T21:17:21.819Z,93620.38
2022-11-05T21:22:32.022Z,93622.66
2022-11-05T21:27:43.386Z,93627.91
2022-11-05T21:32:48.272Z,93630.89
2022-11-05T21:37:55.885Z,93634.57
2022-11-05T21:43:02.731Z,93633.20
2022-11-05T21:48:15.701Z,93638.97
2022-11-05T21:53:43.809Z,93635.56
2022-11-05T21:59:08.043Z,93629.37
2022-11-05T22:04:14.996Z,93633.33
2022-11-05T22:09:21.866Z,93631.09
2022-11-05T22:14:30.650Z,93631.69
2022-11-05T22:19:38.956Z,93627.79
2022-11-05T22:24:46.918Z,93630.13
2022-11-05T22:29:55.207Z,93630.13
2022-11-05T22:35:02.179Z,93632.62
2022-11-05T22:40:11.144Z,93627.66
2022-11-05T22:45:17.906Z,93630.23
2022-11-05T22:50:24.712Z,93627.24
2022-11-05T22:55:31.859Z,93627.24
2022-11-05T23:00:39.732Z,93628.44
2022-11-05T23:06:47.182Z,93621.34
2022-11-05T23:11:57.215Z,93629.83
2022-11-05T23:17:21.805Z,93627.84
2022-11-05T23:22:49.293Z,93623.17
2022-11-05T23:27:58.442Z,93620.71
2022-11-05T23:33:05.292Z,93617.97
2022-11-05T23:38:29.542Z,93620.66
2022-11-05T23:43:53.609Z,93614.83
2022-11-05T23:49:00.694Z,93616.78
2022-11-05T23:54:07.485Z,93618.33
2022-11-05T23:59:14.261Z,93610.35
